createdAt,value
2022-09-20T00:01:21.174Z,55.62
2022-09-20T00:03:54.299Z,56.10
2022-09-20T00:06:57.150Z,55.85
2022-09-20T00:10:43.252Z,61.30
2022-09-20T01:49:53.243Z,57.63
2022-09-20T01:52:33.708Z,58.73
2022-09-20T01:55:20.963Z,63.38
2022-09-20T01:58:12.027Z,66.45
2022-09-20T02:01:00.533Z,62.76
2022-09-20T02:03:47.501Z,58.80
2022-09-20T02:06:42.097Z,55.58
2022-09-20T02:09:19.437Z,56.12
2022-09-20T02:12:07.573Z,58.04
2022-09-20T02:14:42.429Z,58.61
2022-09-20T02:17:12.960Z,60.31
2022-09-20T02:19:49.652Z,60.73
2022-09-20T02:22:41.356Z,61.81
2022-09-20T02:25:18.459Z,68.07
2022-09-20T02:28:08.879Z,68.29
2022-09-20T02:38:21.694Z,56.25
2022-09-20T02:41:12.903Z,57.03
2022-09-20T02:43:45.474Z,59.82
2022-09-20T02:46:19.384Z,60.80
2022-09-20T02:49:16.606Z,62.32
2022-09-20T02:52:04.390Z,68.22
2022-09-20T02:54:35.004Z,64.19
2022-09-20T03:05:19.563Z,56.85
2022-09-20T03:08:17.501Z,58.84
2022-09-20T03:20:07.756Z,62.54
2022-09-20T03:26:59.998Z,56.92
2022-09-20T03:29:42.464Z,58.06
2022-09-20T03:32:19.700Z,59.43
2022-09-20T03:34:52.693Z,58.51
2022-09-20T03:42:29.580Z,60.68
2022-09-20T03:44:12.667Z,63.38
2022-09-20T03:48:29.639Z,68.42
2022-09-20T03:57:36.238Z,60.65
2022-09-20T04:01:03.240Z,58.44
2022-09-20T04:21:40.346Z,58.27
2022-09-20T04:24:17.241Z,57.35
2022-09-20T04:26:45.533Z,59.65
2022-09-20T04:29:26.378Z,62.95
2022-09-20T04:32:13.317Z,65.30
2022-09-20T04:35:01.960Z,62.44
2022-09-20T04:37:38.584Z,59.22
2022-09-20T04:40:13.867Z,57.56
2022-09-20T04:43:00.191Z,59.65
2022-09-20T04:45:41.690Z,62.19
2022-09-20T04:48:09.830Z,66.62
2022-09-20T04:50:37.889Z,63.85
2022-09-20T04:53:07.303Z,60.35
2022-09-20T04:55:38.053Z,57.84
2022-09-20T04:58:24.189Z,56.72
2022-09-20T05:01:19.447Z,58.56
2022-09-20T05:04:05.730Z,59.65
2022-09-20T05:06:43.469Z,61.73
2022-09-20T05:09:16.341Z,67.74
2022-09-20T05:12:03.224Z,67.67
2022-09-20T05:14:34.793Z,62.53
2022-09-20T05:17:17.719Z,60.91
2022-09-20T05:19:58.546Z,56.93
2022-09-20T05:22:41.542Z,55.52
2022-09-20T05:25:28.217Z,57.18
2022-09-20T05:27:57.370Z,57.79
2022-09-20T05:30:42.496Z,62.73
2022-09-20T05:33:13.528Z,66.44
2022-09-20T05:35:41.691Z,62.88
2022-09-20T05:41:18.666Z,57.13
2022-09-20T05:43:59.393Z,56.57
2022-09-20T05:46:46.453Z,56.21
2022-09-20T05:49:17.052Z,59.03
2022-09-20T05:51:51.332Z,60.02
2022-09-20T05:54:38.349Z,64.57
2022-09-20T05:57:21.437Z,65.96
2022-09-20T06:00:07.711Z,64.38
2022-09-20T06:02:44.998Z,60.50
2022-09-20T06:05:16.928Z,58.38
2022-09-20T06:07:46.115Z,56.82
2022-09-20T06:10:20.321Z,57.14
2022-09-20T06:13:03.323Z,59.06
2022-09-20T06:15:44.912Z,58.87
2022-09-20T06:18:33.524Z,62.74
2022-09-20T06:21:21.409Z,66.59
2022-09-20T06:23:49.650Z,64.24
2022-09-20T06:26:23.628Z,61.73
2022-09-20T06:28:55.296Z,58.62
2022-09-20T06:31:26.293Z,56.90
2022-09-20T06:34:03.917Z,57.28
2022-09-20T06:36:50.932Z,60.09
2022-09-20T06:39:47.189Z,60.98
2022-09-20T06:42:14.808Z,64.61
2022-09-20T06:44:43.300Z,66.19
2022-09-20T06:47:11.168Z,63.12
2022-09-20T06:49:42.340Z,60.57
2022-09-20T06:52:17.665Z,58.82
2022-09-20T06:54:46.358Z,56.62
2022-09-20T06:57:15.873Z,57.00
2022-09-20T06:59:44.037Z,58.21
2022-09-20T07:02:12.806Z,60.78
2022-09-20T07:04:40.917Z,64.19
2022-09-20T07:07:09.585Z,63.59
2022-09-20T07:09:37.529Z,60.31
2022-09-20T07:12:05.287Z,57.40
2022-09-20T07:14:32.939Z,56.26
2022-09-20T07:17:00.560Z,58.02
2022-09-20T07:19:28.186Z,59.51
2022-09-20T07:21:55.817Z,60.41
2022-09-20T07:24:23.421Z,63.75
2022-09-20T07:26:59.382Z,62.55
2022-09-20T07:29:27.357Z,58.23
2022-09-20T07:31:55.990Z,55.56
2022-09-20T07:34:24.027Z,56.53
2022-09-20T07:36:52.298Z,60.24
2022-09-20T07:39:20.097Z,59.79
2022-09-20T07:41:50.716Z,60.36
2022-09-20T07:44:22.183Z,60.88
2022-09-20T07:46:53.905Z,64.12
2022-09-20T07:49:22.071Z,64.73
2022-09-20T07:51:50.279Z,63.06
2022-09-20T07:54:18.092Z,61.34
2022-09-20T07:56:45.951Z,57.46
2022-09-20T07:59:14.307Z,55.84
2022-09-20T08:01:42.287Z,56.24
2022-09-20T08:04:10.326Z,58.11
2022-09-20T08:06:39.191Z,59.72
2022-09-20T08:09:10.884Z,59.86
2022-09-20T08:11:39.823Z,59.75
2022-09-20T08:14:08.983Z,59.55
2022-09-20T08:16:38.155Z,59.86
2022-09-20T08:19:05.840Z,59.89
2022-09-20T08:21:36.155Z,63.09
2022-09-20T08:24:04.134Z,64.64
2022-09-20T08:26:32.279Z,60.21
2022-09-20T08:29:00.246Z,55.80
2022-09-20T08:31:35.587Z,56.37
2022-09-20T08:34:04.749Z,58.65
2022-09-20T08:36:36.326Z,59.55
2022-09-20T08:41:57.339Z,59.88
2022-09-20T08:44:47.073Z,62.33
2022-09-20T08:47:14.981Z,63.44
2022-09-20T08:49:46.183Z,59.77
2022-09-20T08:52:48.018Z,55.60
2022-09-20T08:55:20.158Z,56.18
2022-09-20T08:57:49.266Z,57.24
2022-09-20T09:00:18.594Z,59.36
2022-09-20T09:02:47.136Z,60.18
2022-09-20T09:05:33.534Z,59.53
2022-09-20T09:08:21.970Z,61.70
2022-09-20T09:10:54.781Z,65.91
2022-09-20T09:13:27.187Z,63.71
2022-09-20T09:16:00.119Z,59.95
2022-09-20T09:18:31.623Z,56.74
2022-09-20T09:21:04.247Z,57.70
2022-09-20T09:23:37.958Z,58.44
2022-09-20T09:26:11.959Z,59.33
2022-09-20T09:28:39.621Z,60.59
2022-09-20T09:31:22.197Z,63.43
2022-09-20T09:33:50.055Z,62.97
2022-09-20T09:36:22.557Z,61.34
2022-09-20T09:38:50.206Z,57.20
2022-09-20T09:41:18.169Z,54.29
2022-09-20T09:43:45.859Z,55.89
2022-09-20T09:46:17.727Z,56.61
2022-09-20T09:48:50.117Z,57.87
2022-09-20T09:51:18.884Z,58.07
2022-09-20T09:53:47.479Z,57.71
2022-09-20T10:02:31.970Z,59.66
2022-09-20T10:05:04.030Z,59.62
2022-09-20T10:07:49.337Z,59.80
2022-09-20T10:11:00.153Z,59.62
2022-09-20T10:13:39.733Z,59.58
2022-09-20T10:20:52.512Z,59.17
2022-09-20T10:24:02.694Z,57.42
2022-09-20T10:26:51.553Z,57.69
2022-09-20T10:29:27.606Z,58.77
2022-09-20T10:32:20.474Z,57.58
2022-09-20T10:34:53.067Z,55.33
2022-09-20T10:37:37.390Z,55.38
2022-09-20T10:41:00.559Z,55.58
2022-09-20T10:44:04.950Z,55.35
2022-09-20T10:46:52.468Z,54.56
2022-09-20T10:49:41.756Z,53.79
2022-09-20T10:52:51.123Z,53.80
2022-09-20T10:55:29.790Z,53.42
2022-09-20T10:58:06.081Z,53.62
2022-09-20T11:06:00.215Z,53.32
2022-09-20T11:08:33.120Z,53.59
2022-09-20T11:11:02.280Z,53.34
2022-09-20T11:13:45.087Z,52.58
2022-09-20T11:16:18.465Z,52.28
2022-09-20T11:18:53.402Z,50.89
2022-09-20T11:25:39.961Z,52.41
2022-09-20T11:28:17.937Z,51.95
2022-09-20T11:30:55.197Z,51.66
2022-09-20T11:33:45.244Z,51.88
2022-09-20T11:36:58.509Z,52.28
2022-09-20T11:39:37.577Z,53.10
2022-09-20T11:42:05.073Z,53.70
2022-09-20T11:44:32.285Z,54.46
2022-09-20T11:47:07.031Z,54.83
2022-09-20T11:50:01.698Z,55.58
2022-09-20T11:52:33.771Z,56.44
2022-09-20T11:55:25.584Z,56.81
2022-09-20T11:58:04.283Z,56.65
2022-09-20T12:56:07.713Z,48.77
2022-09-20T12:58:44.564Z,47.40
2022-09-20T13:01:14.360Z,46.55
2022-09-20T13:03:43.609Z,45.95
2022-09-20T13:06:19.017Z,45.28
2022-09-20T13:09:03.798Z,45.53
2022-09-20T13:11:40.704Z,44.84
2022-09-20T13:14:07.134Z,43.79
2022-09-20T13:16:58.493Z,43.56
2022-09-20T13:28:43.616Z,41.09
2022-09-20T13:31:19.918Z,40.79
2022-09-20T13:33:47.405Z,40.40
2022-09-20T13:36:14.082Z,40.51
2022-09-20T13:38:40.864Z,39.08
2022-09-20T13:41:12.295Z,38.64
2022-09-20T13:52:26.298Z,33.70
2022-09-20T13:54:54.730Z,33.64
2022-09-20T13:57:27.314Z,32.55
2022-09-20T13:59:54.358Z,33.22
2022-09-20T14:02:26.352Z,32.66
2022-09-20T14:04:54.712Z,30.59
2022-09-20T14:07:25.299Z,30.42
2022-09-20T14:09:53.145Z,30.12
2022-09-20T14:12:21.619Z,30.66
2022-09-20T14:14:49.521Z,29.82
2022-09-20T14:17:20.877Z,28.56
2022-09-20T14:19:51.098Z,28.36
2022-09-20T14:22:27.971Z,27.04
2022-09-20T14:25:12.742Z,26.54
2022-09-20T14:27:39.279Z,25.48
2022-09-20T14:39:14.993Z,24.66
2022-09-20T14:41:42.854Z,23.93
2022-09-20T14:44:30.851Z,25.22
2022-09-20T14:46:57.818Z,25.71
2022-09-20T14:49:25.594Z,26.12
2022-09-20T14:51:53.269Z,25.82
2022-09-20T14:54:30.254Z,25.79
2022-09-20T14:57:01.006Z,25.13
2022-09-20T14:59:34.643Z,25.22
2022-09-20T15:02:09.374Z,25.38
2022-09-20T15:04:37.207Z,25.76
2022-09-20T15:07:10.283Z,26.39
2022-09-20T15:09:37.691Z,27.49
2022-09-20T15:12:06.538Z,28.72
2022-09-20T15:14:37.472Z,31.29
2022-09-20T15:17:04.771Z,34.40
2022-09-20T15:19:31.199Z,36.43
2022-09-20T18:36:17.784Z,68.72
2022-09-20T18:38:45.225Z,63.32
2022-09-20T18:41:13.826Z,60.37
2022-09-20T18:43:43.868Z,57.08
2022-09-20T18:46:11.655Z,55.55
2022-09-20T18:48:39.542Z,57.01
2022-09-20T18:51:07.707Z,58.27
2022-09-20T18:53:41.830Z,59.82
2022-09-20T18:56:23.065Z,60.50
2022-09-20T18:58:52.584Z,61.41
2022-09-20T19:01:25.839Z,65.20
2022-09-20T19:04:32.733Z,65.89
2022-09-20T19:07:26.674Z,62.00
2022-09-20T19:10:08.216Z,57.36
2022-09-20T19:17:06.197Z,57.99
2022-09-20T19:19:46.026Z,59.77
2022-09-20T19:23:00.365Z,60.63
2022-09-20T19:25:44.928Z,61.42
2022-09-20T19:28:15.105Z,65.85
2022-09-20T19:30:42.460Z,65.18
2022-09-20T19:38:16.146Z,55.80
2022-09-20T19:41:15.521Z,56.85
2022-09-20T19:44:03.652Z,58.18
2022-09-20T19:46:46.784Z,59.60
2022-09-20T19:50:03.932Z,60.65
2022-09-20T19:52:30.814Z,61.24
2022-09-20T19:54:57.801Z,65.02
2022-09-20T19:57:49.032Z,65.67
2022-09-20T20:00:21.590Z,63.51
2022-09-20T20:02:49.031Z,61.18
2022-09-20T20:05:20.819Z,56.78
2022-09-20T20:08:16.417Z,56.22
2022-09-20T20:10:54.780Z,57.36
2022-09-20T20:14:00.636Z,58.83
2022-09-20T20:16:32.947Z,59.58
2022-09-20T20:19:09.445Z,61.14
2022-09-20T20:21:47.224Z,65.48
2022-09-20T20:24:37.570Z,66.54
2022-09-20T20:27:05.302Z,61.85
2022-09-20T20:29:31.774Z,58.13
2022-09-20T20:31:58.341Z,57.20
2022-09-20T20:34:26.206Z,58.16
2022-09-20T20:37:00.165Z,59.43
2022-09-20T20:39:28.208Z,60.53
2022-09-20T20:41:54.882Z,64.75
2022-09-20T20:44:21.562Z,66.70
2022-09-20T20:46:48.406Z,63.52
2022-09-20T20:49:17.141Z,60.27
2022-09-20T20:51:44.179Z,56.94
2022-09-20T20:54:13.948Z,56.21
2022-09-20T20:56:40.588Z,57.55
2022-09-20T20:59:07.918Z,59.37
2022-09-20T21:01:42.217Z,60.51
2022-09-20T21:04:11.606Z,61.35
2022-09-20T21:06:40.264Z,66.17
2022-09-20T21:09:12.543Z,65.94
2022-09-20T21:11:43.452Z,62.42
2022-09-20T21:14:11.762Z,57.94
2022-09-20T21:16:42.378Z,57.27
2022-09-20T21:19:13.947Z,58.36
2022-09-20T21:21:43.083Z,59.97
2022-09-20T21:24:31.300Z,64.33
2022-09-20T21:27:00.567Z,65.07
2022-09-20T21:29:27.734Z,61.48
2022-09-20T21:31:54.336Z,60.11
2022-09-20T21:34:20.987Z,56.75
2022-09-20T21:36:47.555Z,56.62
2022-09-20T21:39:14.862Z,58.22
2022-09-20T21:41:41.388Z,59.46
2022-09-20T21:44:11.480Z,60.38
2022-09-20T21:46:39.728Z,62.14
2022-09-20T21:49:09.440Z,66.84
2022-09-20T21:51:37.525Z,66.03
2022-09-20T21:54:05.034Z,62.15
2022-09-20T21:56:33.424Z,60.27
2022-09-20T21:59:03.314Z,56.96
2022-09-20T22:01:34.397Z,56.73
2022-09-20T22:04:07.031Z,58.50
2022-09-20T22:06:40.145Z,60.60
2022-09-20T22:09:09.115Z,64.11
2022-09-20T22:11:43.924Z,64.46
2022-09-20T22:14:13.838Z,60.86
2022-09-20T22:16:42.243Z,57.71
2022-09-20T22:19:12.477Z,56.58
2022-09-20T22:21:41.391Z,57.86
2022-09-20T22:24:11.409Z,59.75
2022-09-20T22:26:40.248Z,60.16
2022-09-20T22:29:09.036Z,64.64
2022-09-20T22:31:38.359Z,65.86
2022-09-20T22:34:06.585Z,61.98
2022-09-20T22:36:35.525Z,58.01
2022-09-20T22:39:06.756Z,56.95
2022-09-20T22:41:34.124Z,58.32
2022-09-20T22:44:00.878Z,59.86
2022-09-20T22:46:29.159Z,61.30
2022-09-20T22:48:56.882Z,61.49
2022-09-20T22:51:25.875Z,66.19
2022-09-20T22:53:53.732Z,66.29
2022-09-20T22:56:22.657Z,62.82
2022-09-20T22:58:53.447Z,59.69
2022-09-20T23:01:22.047Z,56.41
2022-09-20T23:04:00.501Z,56.41
2022-09-20T23:06:31.113Z,58.27
2022-09-20T23:09:00.518Z,59.65
2022-09-20T23:11:28.231Z,61.36
2022-09-20T23:14:05.293Z,64.69
2022-09-20T23:16:34.085Z,65.55
2022-09-20T23:19:02.642Z,62.10
2022-09-20T23:21:29.670Z,58.30
2022-09-20T23:23:58.256Z,57.21
2022-09-20T23:26:26.153Z,58.74
2022-09-20T23:28:57.570Z,60.03
2022-09-20T23:31:25.721Z,61.20
2022-09-20T23:33:55.017Z,66.09
2022-09-20T23:36:22.683Z,66.52
2022-09-20T23:38:49.857Z,62.11
2022-09-20T23:41:20.092Z,58.23
2022-09-20T23:43:47.247Z,56.86
2022-09-20T23:46:15.207Z,57.92
2022-09-20T23:48:42.218Z,59.42
2022-09-20T23:51:11.213Z,60.53
2022-09-20T23:53:38.196Z,61.38
2022-09-20T23:56:05.609Z,64.92
2022-09-20T23:58:35.321Z,65.88
